KRBG/RBG METAR and TAF weather

Enter ICAO airport designator
Station Type Date Time Source
KRBG METAR 2022/01/18 08:15 UTC NOAA

KRBG 180815Z AUTO 00000KT 1/2SM FG VV002 03/03 A3013 RMK AO2 T00280028 $


Station Type Date Time Source
KRBG Decoded METAR 2022/01/18 08:15 UTC NOAA

ROSEBURG REGIONAL AIRPORT, OR, United States (KRBG) 43-14N 123-21W 154M
Jan 18, 2022 - 03:15 AM EST / 2022.01.18 0815 UTC
Wind: Calm:0
Visibility: 1/2 mile(s):0
Sky conditions: obscured
Weather: fog
Temperature: 37.0 F (2.8 C)
Dew Point: 37.0 F (2.8 C)
Relative Humidity: 100%
Pressure (altimeter): 30.13 in. Hg (1020 hPa)
ob: KRBG 180815Z AUTO 00000KT 1/2SM FG VV002 03/03 A3013 RMK AO2 T00280028
cycle: 8

Station Type Date Time Source
KRBG TAF 2022/01/18 06:22 UTC NOAA

TAF KRBG 180520Z 1806/1906 00000KT P6SM SCT005
FM180700 00000KT P6SM OVC005
FM180900 00000KT 1/2SM FG OVC002
FM181800 VRB03KT P6SM SCT005 OVC020
FM182000 VRB03KT P6SM OVC030

Example: see airport list